sensor_id;sensor_type;location;lat;lon;timestamp;temperature;humidity
59208;DHT22;44977;53.132;6.408;2024-03-22T00:01:59;9.50;99.90
59208;DHT22;44977;53.132;6.408;2024-03-22T00:06:59;9.50;99.90
59208;DHT22;44977;53.132;6.408;2024-03-22T00:12:00;9.60;99.90
59208;DHT22;44977;53.132;6.408;2024-03-22T00:17:01;9.60;99.90
59208;DHT22;44977;53.132;6.408;2024-03-22T00:22:01;9.60;99.90
59208;DHT22;44977;53.132;6.408;2024-03-22T00:27:02;9.60;99.90
59208;DHT22;44977;53.132;6.408;2024-03-22T00:32:03;9.60;99.90
59208;DHT22;44977;53.132;6.408;2024-03-22T00:37:04;9.60;99.90
59208;DHT22;44977;53.132;6.408;2024-03-22T00:42:05;9.60;99.90
59208;DHT22;44977;53.132;6.408;2024-03-22T00:47:05;9.60;99.90
59208;DHT22;44977;53.132;6.408;2024-03-22T00:52:06;9.60;99.90
59208;DHT22;44977;53.132;6.408;2024-03-22T00:57:07;9.70;99.90
59208;DHT22;44977;53.132;6.408;2024-03-22T01:02:07;9.70;99.90
59208;DHT22;44977;53.132;6.408;2024-03-22T01:07:08;9.70;99.90
59208;DHT22;44977;53.132;6.408;2024-03-22T01:12:09;9.70;99.90
59208;DHT22;44977;53.132;6.408;2024-03-22T01:17:10;9.70;99.90
59208;DHT22;44977;53.132;6.408;2024-03-22T01:22:11;9.70;99.90
59208;DHT22;44977;53.132;6.408;2024-03-22T01:27:12;9.70;99.90
59208;DHT22;44977;53.132;6.408;2024-03-22T01:32:13;9.70;99.90
59208;DHT22;44977;53.132;6.408;2024-03-22T01:37:13;9.80;99.90
59208;DHT22;44977;53.132;6.408;2024-03-22T01:42:14;9.70;99.90
59208;DHT22;44977;53.132;6.408;2024-03-22T01:47:15;9.80;99.90
59208;DHT22;44977;53.132;6.408;2024-03-22T01:52:16;9.80;99.90
59208;DHT22;44977;53.132;6.408;2024-03-22T01:57:17;9.80;99.90
59208;DHT22;44977;53.132;6.408;2024-03-22T02:02:17;9.80;99.90
59208;DHT22;44977;53.132;6.408;2024-03-22T02:07:18;9.90;99.90
59208;DHT22;44977;53.132;6.408;2024-03-22T02:12:19;9.90;99.90
59208;DHT22;44977;53.132;6.408;2024-03-22T02:17:19;10.00;99.90
59208;DHT22;44977;53.132;6.408;2024-03-22T02:22:20;10.00;99.90
59208;DHT22;44977;53.132;6.408;2024-03-22T02:27:21;10.00;99.90
59208;DHT22;44977;53.132;6.408;2024-03-22T02:32:21;10.10;99.90
59208;DHT22;44977;53.132;6.408;2024-03-22T02:37:22;10.10;99.90
59208;DHT22;44977;53.132;6.408;2024-03-22T02:42:23;10.20;99.90
59208;DHT22;44977;53.132;6.408;2024-03-22T02:47:23;10.20;99.90
59208;DHT22;44977;53.132;6.408;2024-03-22T02:52:24;10.20;99.90
59208;DHT22;44977;53.132;6.408;2024-03-22T02:57:25;10.30;99.90
59208;DHT22;44977;53.132;6.408;2024-03-22T03:02:25;10.30;99.90
59208;DHT22;44977;53.132;6.408;2024-03-22T03:07:26;10.40;99.90
59208;DHT22;44977;53.132;6.408;2024-03-22T03:12:28;10.40;99.90
59208;DHT22;44977;53.132;6.408;2024-03-22T03:17:28;10.30;99.90
59208;DHT22;44977;53.132;6.408;2024-03-22T03:22:29;10.30;99.90
59208;DHT22;44977;53.132;6.408;2024-03-22T03:27:30;10.40;99.90
59208;DHT22;44977;53.132;6.408;2024-03-22T03:32:31;10.40;99.90
59208;DHT22;44977;53.132;6.408;2024-03-22T03:37:31;10.40;99.90
59208;DHT22;44977;53.132;6.408;2024-03-22T03:42:32;10.40;99.90
59208;DHT22;44977;53.132;6.408;2024-03-22T03:47:33;10.40;99.90
59208;DHT22;44977;53.132;6.408;2024-03-22T03:52:34;10.40;99.90
59208;DHT22;44977;53.132;6.408;2024-03-22T03:57:35;10.40;99.90
59208;DHT22;44977;53.132;6.408;2024-03-22T04:02:36;10.40;99.90
59208;DHT22;44977;53.132;6.408;2024-03-22T04:07:36;10.40;99.90
59208;DHT22;44977;53.132;6.408;2024-03-22T04:12:37;10.50;99.90
59208;DHT22;44977;53.132;6.408;2024-03-22T04:17:37;10.50;99.90
59208;DHT22;44977;53.132;6.408;2024-03-22T04:22:38;10.50;99.90
59208;DHT22;44977;53.132;6.408;2024-03-22T04:27:39;10.50;99.90
59208;DHT22;44977;53.132;6.408;2024-03-22T04:32:40;10.40;99.90
59208;DHT22;44977;53.132;6.408;2024-03-22T04:37:40;10.50;99.90
59208;DHT22;44977;53.132;6.408;2024-03-22T04:42:41;10.50;99.90
59208;DHT22;44977;53.132;6.408;2024-03-22T04:47:42;10.50;99.90
59208;DHT22;44977;53.132;6.408;2024-03-22T04:52:43;10.50;99.90
59208;DHT22;44977;53.132;6.408;2024-03-22T04:57:44;10.50;99.90
59208;DHT22;44977;53.132;6.408;2024-03-22T05:02:45;10.50;99.90
59208;DHT22;44977;53.132;6.408;2024-03-22T05:07:45;10.40;99.90
59208;DHT22;44977;53.132;6.408;2024-03-22T05:12:46;10.40;99.90
59208;DHT22;44977;53.132;6.408;2024-03-22T05:17:47;10.40;99.90
59208;DHT22;44977;53.132;6.408;2024-03-22T05:22:48;10.40;99.90
59208;DHT22;44977;53.132;6.408;2024-03-22T05:27:48;10.40;99.90
59208;DHT22;44977;53.132;6.408;2024-03-22T05:32:49;10.50;99.90
59208;DHT22;44977;53.132;6.408;2024-03-22T05:37:50;10.40;99.90
59208;DHT22;44977;53.132;6.408;2024-03-22T05:42:51;10.40;99.90
59208;DHT22;44977;53.132;6.408;2024-03-22T05:47:51;10.40;99.90
59208;DHT22;44977;53.132;6.408;2024-03-22T05:52:52;10.30;99.90
59208;DHT22;44977;53.132;6.408;2024-03-22T05:57:53;10.30;99.90
59208;DHT22;44977;53.132;6.408;2024-03-22T06:02:53;10.20;99.90
59208;DHT22;44977;53.132;6.408;2024-03-22T06:07:54;10.20;99.90
59208;DHT22;44977;53.132;6.408;2024-03-22T06:12:55;10.20;99.90
59208;DHT22;44977;53.132;6.408;2024-03-22T06:17:56;10.20;99.90
59208;DHT22;44977;53.132;6.408;2024-03-22T06:22:57;10.20;99.90
59208;DHT22;44977;53.132;6.408;2024-03-22T06:27:58;10.20;99.90
59208;DHT22;44977;53.132;6.408;2024-03-22T06:32:58;10.10;99.90
59208;DHT22;44977;53.132;6.408;2024-03-22T06:37:59;10.20;99.90
59208;DHT22;44977;53.132;6.408;2024-03-22T06:43:03;10.20;99.90
59208;DHT22;44977;53.132;6.408;2024-03-22T06:48:04;10.20;99.90
59208;DHT22;44977;53.132;6.408;2024-03-22T06:53:05;10.20;99.90
59208;DHT22;44977;53.132;6.408;2024-03-22T06:58:05;10.10;99.90
59208;DHT22;44977;53.132;6.408;2024-03-22T07:03:06;10.20;99.90
59208;DHT22;44977;53.132;6.408;2024-03-22T07:08:07;10.20;99.90
59208;DHT22;44977;53.132;6.408;2024-03-22T07:13:07;10.20;99.90
59208;DHT22;44977;53.132;6.408;2024-03-22T07:18:08;10.20;99.90
59208;DHT22;44977;53.132;6.408;2024-03-22T07:23:09;10.20;99.90
59208;DHT22;44977;53.132;6.408;2024-03-22T07:28:10;10.10;99.90
59208;DHT22;44977;53.132;6.408;2024-03-22T07:33:11;10.10;99.90
59208;DHT22;44977;53.132;6.408;2024-03-22T07:38:17;10.10;99.90
59208;DHT22;44977;53.132;6.408;2024-03-22T07:43:17;10.10;99.90
59208;DHT22;44977;53.132;6.408;2024-03-22T07:48:18;10.10;99.90
59208;DHT22;44977;53.132;6.408;2024-03-22T07:53:19;10.10;99.90
59208;DHT22;44977;53.132;6.408;2024-03-22T07:58:20;10.10;99.90
59208;DHT22;44977;53.132;6.408;2024-03-22T08:03:20;10.10;99.90
59208;DHT22;44977;53.132;6.408;2024-03-22T08:08:21;10.10;99.90
59208;DHT22;44977;53.132;6.408;2024-03-22T08:13:22;10.10;99.90
59208;DHT22;44977;53.132;6.408;2024-03-22T08:18:23;10.10;99.90
59208;DHT22;44977;53.132;6.408;2024-03-22T08:23:23;10.10;99.90
59208;DHT22;44977;53.132;6.408;2024-03-22T08:28:24;10.10;99.90
59208;DHT22;44977;53.132;6.408;2024-03-22T08:33:25;10.10;99.90
59208;DHT22;44977;53.132;6.408;2024-03-22T08:38:25;10.10;99.90
59208;DHT22;44977;53.132;6.408;2024-03-22T08:43:27;10.10;99.90
59208;DHT22;44977;53.132;6.408;2024-03-22T08:48:29;10.10;99.90
59208;DHT22;44977;53.132;6.408;2024-03-22T08:53:30;10.20;99.90
59208;DHT22;44977;53.132;6.408;2024-03-22T08:58:30;10.20;99.90
59208;DHT22;44977;53.132;6.408;2024-03-22T09:03:31;10.20;99.90
59208;DHT22;44977;53.132;6.408;2024-03-22T09:08:32;10.20;99.90
59208;DHT22;44977;53.132;6.408;2024-03-22T09:13:41;10.20;99.90
59208;DHT22;44977;53.132;6.408;2024-03-22T09:18:42;10.20;99.90
59208;DHT22;44977;53.132;6.408;2024-03-22T09:23:43;10.20;99.90
59208;DHT22;44977;53.132;6.408;2024-03-22T09:28:48;10.20;99.90
59208;DHT22;44977;53.132;6.408;2024-03-22T09:33:49;10.20;99.90
59208;DHT22;44977;53.132;6.408;2024-03-22T09:38:49;10.20;99.90
59208;DHT22;44977;53.132;6.408;2024-03-22T09:43:52;10.20;99.90
59208;DHT22;44977;53.132;6.408;2024-03-22T09:48:54;10.20;99.90
59208;DHT22;44977;53.132;6.408;2024-03-22T09:53:55;10.20;99.90
59208;DHT22;44977;53.132;6.408;2024-03-22T09:58:57;10.20;99.90
59208;DHT22;44977;53.132;6.408;2024-03-22T10:03:57;10.20;99.90
59208;DHT22;44977;53.132;6.408;2024-03-22T10:08:59;10.20;99.90
59208;DHT22;44977;53.132;6.408;2024-03-22T10:14:04;10.20;99.90
59208;DHT22;44977;53.132;6.408;2024-03-22T10:19:05;10.20;99.90
59208;DHT22;44977;53.132;6.408;2024-03-22T10:24:07;10.20;99.90
59208;DHT22;44977;53.132;6.408;2024-03-22T10:29:08;10.20;99.90
59208;DHT22;44977;53.132;6.408;2024-03-22T10:34:11;10.30;99.90
59208;DHT22;44977;53.132;6.408;2024-03-22T10:39:16;10.30;99.90
59208;DHT22;44977;53.132;6.408;2024-03-22T10:44:20;10.30;99.90
59208;DHT22;44977;53.132;6.408;2024-03-22T10:49:21;10.30;99.90
59208;DHT22;44977;53.132;6.408;2024-03-22T10:54:27;10.40;99.90
59208;DHT22;44977;53.132;6.408;2024-03-22T10:59:33;10.40;99.90
59208;DHT22;44977;53.132;6.408;2024-03-22T11:04:35;10.50;99.90
59208;DHT22;44977;53.132;6.408;2024-03-22T11:09:35;10.50;99.90
59208;DHT22;44977;53.132;6.408;2024-03-22T11:14:36;10.50;99.90
59208;DHT22;44977;53.132;6.408;2024-03-22T11:19:37;10.50;99.90
59208;DHT22;44977;53.132;6.408;2024-03-22T11:24:39;10.50;99.90
59208;DHT22;44977;53.132;6.408;2024-03-22T11:29:39;10.50;99.90
59208;DHT22;44977;53.132;6.408;2024-03-22T11:34:42;10.50;99.90
59208;DHT22;44977;53.132;6.408;2024-03-22T11:39:42;10.50;99.90
59208;DHT22;44977;53.132;6.408;2024-03-22T11:44:43;10.50;99.90
59208;DHT22;44977;53.132;6.408;2024-03-22T11:49:44;10.50;99.90
59208;DHT22;44977;53.132;6.408;2024-03-22T11:54:51;10.50;99.90
59208;DHT22;44977;53.132;6.408;2024-03-22T11:59:59;10.60;99.90
59208;DHT22;44977;53.132;6.408;2024-03-22T12:05:00;10.50;99.90
59208;DHT22;44977;53.132;6.408;2024-03-22T12:10:01;10.40;99.90
59208;DHT22;44977;53.132;6.408;2024-03-22T12:15:05;10.50;99.90
59208;DHT22;44977;53.132;6.408;2024-03-22T12:20:08;10.50;99.90
59208;DHT22;44977;53.132;6.408;2024-03-22T12:25:09;10.50;99.90
59208;DHT22;44977;53.132;6.408;2024-03-22T12:30:12;10.50;99.90
59208;DHT22;44977;53.132;6.408;2024-03-22T12:35:12;10.50;99.90
59208;DHT22;44977;53.132;6.408;2024-03-22T12:40:13;10.60;99.90
59208;DHT22;44977;53.132;6.408;2024-03-22T12:45:14;10.60;99.90
59208;DHT22;44977;53.132;6.408;2024-03-22T12:50:15;10.60;99.90
59208;DHT22;44977;53.132;6.408;2024-03-22T12:55:16;10.60;99.90
59208;DHT22;44977;53.132;6.408;2024-03-22T13:00:16;10.50;99.90
59208;DHT22;44977;53.132;6.408;2024-03-22T13:05:19;10.50;99.90
59208;DHT22;44977;53.132;6.408;2024-03-22T13:10:19;10.50;99.90
59208;DHT22;44977;53.132;6.408;2024-03-22T13:15:20;10.50;99.90
59208;DHT22;44977;53.132;6.408;2024-03-22T13:20:21;10.50;99.90
59208;DHT22;44977;53.132;6.408;2024-03-22T13:25:22;10.50;99.90
59208;DHT22;44977;53.132;6.408;2024-03-22T13:30:22;10.50;99.90
59208;DHT22;44977;53.132;6.408;2024-03-22T13:35:23;10.40;99.90
59208;DHT22;44977;53.132;6.408;2024-03-22T13:40:24;10.40;99.90
59208;DHT22;44977;53.132;6.408;2024-03-22T13:45:24;10.40;99.90
59208;DHT22;44977;53.132;6.408;2024-03-22T13:50:25;10.40;99.90
59208;DHT22;44977;53.132;6.408;2024-03-22T13:55:26;10.40;99.90
59208;DHT22;44977;53.132;6.408;2024-03-22T14:00:27;10.30;99.90
59208;DHT22;44977;53.132;6.408;2024-03-22T14:05:27;10.30;99.90
59208;DHT22;44977;53.132;6.408;2024-03-22T14:10:30;10.30;99.90
59208;DHT22;44977;53.132;6.408;2024-03-22T14:15:34;10.30;99.90
59208;DHT22;44977;53.132;6.408;2024-03-22T14:20:36;10.20;99.90
59208;DHT22;44977;53.132;6.408;2024-03-22T14:25:36;10.20;99.90
59208;DHT22;44977;53.132;6.408;2024-03-22T14:30:37;10.20;99.90
59208;DHT22;44977;53.132;6.408;2024-03-22T14:35:39;10.20;99.90
59208;DHT22;44977;53.132;6.408;2024-03-22T14:40:39;10.20;99.90
59208;DHT22;44977;53.132;6.408;2024-03-22T14:45:40;10.20;99.90
59208;DHT22;44977;53.132;6.408;2024-03-22T14:50:41;10.10;99.90
59208;DHT22;44977;53.132;6.408;2024-03-22T14:55:52;10.10;99.90
59208;DHT22;44977;53.132;6.408;2024-03-22T15:01:03;10.10;99.90
59208;DHT22;44977;53.132;6.408;2024-03-22T15:06:04;10.10;99.90
59208;DHT22;44977;53.132;6.408;2024-03-22T15:11:05;10.00;99.90
59208;DHT22;44977;53.132;6.408;2024-03-22T15:16:06;10.00;99.90
59208;DHT22;44977;53.132;6.408;2024-03-22T15:21:06;10.00;99.90
59208;DHT22;44977;53.132;6.408;2024-03-22T15:26:07;10.00;99.90
59208;DHT22;44977;53.132;6.408;2024-03-22T15:31:08;10.00;99.90
59208;DHT22;44977;53.132;6.408;2024-03-22T15:36:09;10.00;99.90
59208;DHT22;44977;53.132;6.408;2024-03-22T15:41:10;10.00;99.90
59208;DHT22;44977;53.132;6.408;2024-03-22T15:46:11;9.90;99.90
59208;DHT22;44977;53.132;6.408;2024-03-22T15:51:12;10.00;99.90
59208;DHT22;44977;53.132;6.408;2024-03-22T15:56:14;10.00;99.90
59208;DHT22;44977;53.132;6.408;2024-03-22T16:01:15;9.90;99.90
59208;DHT22;44977;53.132;6.408;2024-03-22T16:06:15;9.90;99.90
59208;DHT22;44977;53.132;6.408;2024-03-22T16:11:16;9.90;99.90
59208;DHT22;44977;53.132;6.408;2024-03-22T16:16:17;9.90;99.90
59208;DHT22;44977;53.132;6.408;2024-03-22T16:21:17;9.90;99.90
59208;DHT22;44977;53.132;6.408;2024-03-22T16:26:18;9.90;99.90
59208;DHT22;44977;53.132;6.408;2024-03-22T16:31:19;9.80;99.90
59208;DHT22;44977;53.132;6.408;2024-03-22T16:36:20;9.80;99.90
59208;DHT22;44977;53.132;6.408;2024-03-22T16:41:21;9.80;99.90
59208;DHT22;44977;53.132;6.408;2024-03-22T16:46:21;9.70;99.90
59208;DHT22;44977;53.132;6.408;2024-03-22T16:51:22;9.70;99.90
59208;DHT22;44977;53.132;6.408;2024-03-22T16:56:23;9.60;99.90
59208;DHT22;44977;53.132;6.408;2024-03-22T17:01:24;9.50;99.90
59208;DHT22;44977;53.132;6.408;2024-03-22T17:06:25;9.50;99.90
59208;DHT22;44977;53.132;6.408;2024-03-22T17:11:25;9.50;99.90
59208;DHT22;44977;53.132;6.408;2024-03-22T17:16:26;9.40;99.90
59208;DHT22;44977;53.132;6.408;2024-03-22T17:21:27;9.40;99.90
59208;DHT22;44977;53.132;6.408;2024-03-22T17:26:28;9.30;99.90
59208;DHT22;44977;53.132;6.408;2024-03-22T17:31:28;9.20;99.90
59208;DHT22;44977;53.132;6.408;2024-03-22T17:36:29;9.20;99.90
59208;DHT22;44977;53.132;6.408;2024-03-22T17:41:30;9.10;99.90
59208;DHT22;44977;53.132;6.408;2024-03-22T17:46:31;9.10;99.90
59208;DHT22;44977;53.132;6.408;2024-03-22T17:51:31;9.00;99.90
59208;DHT22;44977;53.132;6.408;2024-03-22T17:56:32;9.00;99.90
59208;DHT22;44977;53.132;6.408;2024-03-22T18:01:33;8.90;99.90
59208;DHT22;44977;53.132;6.408;2024-03-22T18:06:34;8.90;99.90
59208;DHT22;44977;53.132;6.408;2024-03-22T18:11:38;8.80;99.90
59208;DHT22;44977;53.132;6.408;2024-03-22T18:16:39;8.80;99.90
59208;DHT22;44977;53.132;6.408;2024-03-22T18:21:39;8.70;99.90
59208;DHT22;44977;53.132;6.408;2024-03-22T18:26:42;8.70;99.90
59208;DHT22;44977;53.132;6.408;2024-03-22T18:31:42;8.70;99.90
59208;DHT22;44977;53.132;6.408;2024-03-22T18:36:43;8.60;99.90
59208;DHT22;44977;53.132;6.408;2024-03-22T18:41:44;8.60;99.90
59208;DHT22;44977;53.132;6.408;2024-03-22T18:46:44;8.60;99.90
59208;DHT22;44977;53.132;6.408;2024-03-22T18:51:47;8.50;99.90
59208;DHT22;44977;53.132;6.408;2024-03-22T18:56:48;8.50;99.90
59208;DHT22;44977;53.132;6.408;2024-03-22T19:01:49;8.50;99.90
59208;DHT22;44977;53.132;6.408;2024-03-22T19:06:50;8.40;99.90
59208;DHT22;44977;53.132;6.408;2024-03-22T19:11:51;8.40;99.90
59208;DHT22;44977;53.132;6.408;2024-03-22T19:16:51;8.40;99.90
59208;DHT22;44977;53.132;6.408;2024-03-22T19:21:52;8.40;99.90
59208;DHT22;44977;53.132;6.408;2024-03-22T19:26:53;8.30;99.90
59208;DHT22;44977;53.132;6.408;2024-03-22T19:31:54;8.30;99.90
59208;DHT22;44977;53.132;6.408;2024-03-22T19:36:54;8.30;99.90
59208;DHT22;44977;53.132;6.408;2024-03-22T19:41:55;8.30;99.90
59208;DHT22;44977;53.132;6.408;2024-03-22T19:46:56;8.30;99.90
59208;DHT22;44977;53.132;6.408;2024-03-22T19:51:56;8.20;99.90
59208;DHT22;44977;53.132;6.408;2024-03-22T19:56:58;8.20;99.90
59208;DHT22;44977;53.132;6.408;2024-03-22T20:01:58;8.20;99.90
59208;DHT22;44977;53.132;6.408;2024-03-22T20:06:59;8.10;99.90
59208;DHT22;44977;53.132;6.408;2024-03-22T20:12:00;8.10;99.90
59208;DHT22;44977;53.132;6.408;2024-03-22T20:17:01;8.10;99.90
59208;DHT22;44977;53.132;6.408;2024-03-22T20:22:03;8.00;99.90
59208;DHT22;44977;53.132;6.408;2024-03-22T20:27:04;8.00;99.90
59208;DHT22;44977;53.132;6.408;2024-03-22T20:32:05;8.00;99.90
59208;DHT22;44977;53.132;6.408;2024-03-22T20:37:06;7.90;99.90
